sensor_id;sensor_type;location;lat;lon;timestamp;temperature;humidity
22491;DHT22;11412;50.802;4.350;2023-02-28T00:00:17;2.40;99.90
22491;DHT22;11412;50.802;4.350;2023-02-28T00:02:44;2.40;99.90
22491;DHT22;11412;50.802;4.350;2023-02-28T00:05:12;2.30;99.90
22491;DHT22;11412;50.802;4.350;2023-02-28T00:07:38;2.20;99.90
22491;DHT22;11412;50.802;4.350;2023-02-28T00:10:05;2.20;99.90
22491;DHT22;11412;50.802;4.350;2023-02-28T00:12:35;2.10;99.90
22491;DHT22;11412;50.802;4.350;2023-02-28T00:15:02;2.50;99.90
22491;DHT22;11412;50.802;4.350;2023-02-28T00:17:30;2.10;99.90
22491;DHT22;11412;50.802;4.350;2023-02-28T00:19:55;2.20;99.90
22491;DHT22;11412;50.802;4.350;2023-02-28T00:22:22;2.40;99.90
22491;DHT22;11412;50.802;4.350;2023-02-28T00:24:48;2.40;99.90
22491;DHT22;11412;50.802;4.350;2023-02-28T00:27:14;2.20;99.90
22491;DHT22;11412;50.802;4.350;2023-02-28T00:29:40;2.10;99.90
22491;DHT22;11412;50.802;4.350;2023-02-28T00:32:06;2.00;99.90
22491;DHT22;11412;50.802;4.350;2023-02-28T00:34:32;2.00;99.90
22491;DHT22;11412;50.802;4.350;2023-02-28T00:37:07;1.90;99.90
22491;DHT22;11412;50.802;4.350;2023-02-28T00:39:35;1.80;99.90
22491;DHT22;11412;50.802;4.350;2023-02-28T00:42:02;1.80;99.90
22491;DHT22;11412;50.802;4.350;2023-02-28T00:44:29;1.90;99.90
22491;DHT22;11412;50.802;4.350;2023-02-28T00:46:55;2.10;99.90
22491;DHT22;11412;50.802;4.350;2023-02-28T00:49:22;2.30;99.90
22491;DHT22;11412;50.802;4.350;2023-02-28T00:51:47;2.40;99.90
22491;DHT22;11412;50.802;4.350;2023-02-28T00:54:13;2.60;99.90
22491;DHT22;11412;50.802;4.350;2023-02-28T00:56:39;2.60;99.90
22491;DHT22;11412;50.802;4.350;2023-02-28T00:59:05;2.50;99.90
22491;DHT22;11412;50.802;4.350;2023-02-28T01:01:30;2.30;99.90
22491;DHT22;11412;50.802;4.350;2023-02-28T01:03:56;2.20;99.90
22491;DHT22;11412;50.802;4.350;2023-02-28T01:06:22;2.20;99.90
22491;DHT22;11412;50.802;4.350;2023-02-28T01:08:48;2.10;99.90
22491;DHT22;11412;50.802;4.350;2023-02-28T01:11:15;2.20;99.90
22491;DHT22;11412;50.802;4.350;2023-02-28T01:13:42;2.10;99.90
22491;DHT22;11412;50.802;4.350;2023-02-28T01:16:08;2.20;99.90
22491;DHT22;11412;50.802;4.350;2023-02-28T01:18:34;2.20;99.90
22491;DHT22;11412;50.802;4.350;2023-02-28T01:21:09;2.20;99.90
22491;DHT22;11412;50.802;4.350;2023-02-28T01:23:35;2.10;99.90
22491;DHT22;11412;50.802;4.350;2023-02-28T01:26:10;2.10;99.90
22491;DHT22;11412;50.802;4.350;2023-02-28T01:28:36;2.00;99.90
22491;DHT22;11412;50.802;4.350;2023-02-28T01:31:02;1.80;99.90
22491;DHT22;11412;50.802;4.350;2023-02-28T01:33:28;1.80;99.90
22491;DHT22;11412;50.802;4.350;2023-02-28T01:36:00;1.80;99.90
22491;DHT22;11412;50.802;4.350;2023-02-28T01:38:26;1.90;99.90
22491;DHT22;11412;50.802;4.350;2023-02-28T01:40:52;1.80;99.90
22491;DHT22;11412;50.802;4.350;2023-02-28T01:43:24;1.70;99.90
22491;DHT22;11412;50.802;4.350;2023-02-28T01:45:51;1.60;99.90
22491;DHT22;11412;50.802;4.350;2023-02-28T01:48:17;1.70;99.90
22491;DHT22;11412;50.802;4.350;2023-02-28T01:50:45;1.60;99.90
22491;DHT22;11412;50.802;4.350;2023-02-28T01:53:16;1.70;99.90
22491;DHT22;11412;50.802;4.350;2023-02-28T01:55:46;1.60;99.90
22491;DHT22;11412;50.802;4.350;2023-02-28T01:58:12;1.70;99.90
22491;DHT22;11412;50.802;4.350;2023-02-28T02:00:38;1.70;99.90
22491;DHT22;11412;50.802;4.350;2023-02-28T02:03:08;1.60;99.90
22491;DHT22;11412;50.802;4.350;2023-02-28T02:05:37;1.80;99.90
22491;DHT22;11412;50.802;4.350;2023-02-28T02:08:06;1.80;99.90
22491;DHT22;11412;50.802;4.350;2023-02-28T02:10:34;1.80;99.90
22491;DHT22;11412;50.802;4.350;2023-02-28T02:18:54;2.00;99.90
22491;DHT22;11412;50.802;4.350;2023-02-28T02:40:59;1.70;99.90
22491;DHT22;11412;50.802;4.350;2023-02-28T02:43:33;1.80;99.90
22491;DHT22;11412;50.802;4.350;2023-02-28T02:46:08;1.70;99.90
22491;DHT22;11412;50.802;4.350;2023-02-28T02:48:36;1.60;99.90
22491;DHT22;11412;50.802;4.350;2023-02-28T02:51:07;1.60;99.90
22491;DHT22;11412;50.802;4.350;2023-02-28T02:54:01;1.40;99.90
22491;DHT22;11412;50.802;4.350;2023-02-28T02:56:29;1.40;99.90
22491;DHT22;11412;50.802;4.350;2023-02-28T02:59:01;1.40;99.90
22491;DHT22;11412;50.802;4.350;2023-02-28T03:01:28;1.50;99.90
22491;DHT22;11412;50.802;4.350;2023-02-28T03:04:02;1.60;99.90
22491;DHT22;11412;50.802;4.350;2023-02-28T03:06:29;1.70;99.90
22491;DHT22;11412;50.802;4.350;2023-02-28T03:08:54;1.70;99.90
22491;DHT22;11412;50.802;4.350;2023-02-28T03:11:20;1.70;99.90
22491;DHT22;11412;50.802;4.350;2023-02-28T03:22:21;1.60;99.90
22491;DHT22;11412;50.802;4.350;2023-02-28T03:24:32;1.70;99.90
22491;DHT22;11412;50.802;4.350;2023-02-28T03:27:23;1.70;99.90
22491;DHT22;11412;50.802;4.350;2023-02-28T03:35:24;1.50;99.90
22491;DHT22;11412;50.802;4.350;2023-02-28T03:37:54;1.50;99.90
22491;DHT22;11412;50.802;4.350;2023-02-28T03:40:25;1.40;99.90
22491;DHT22;11412;50.802;4.350;2023-02-28T03:42:55;1.40;99.90
22491;DHT22;11412;50.802;4.350;2023-02-28T03:45:26;1.30;99.90
22491;DHT22;11412;50.802;4.350;2023-02-28T03:47:57;1.10;99.90
22491;DHT22;11412;50.802;4.350;2023-02-28T03:50:44;1.20;99.90
22491;DHT22;11412;50.802;4.350;2023-02-28T03:53:16;1.10;99.90
22491;DHT22;11412;50.802;4.350;2023-02-28T03:55:48;1.10;99.90
22491;DHT22;11412;50.802;4.350;2023-02-28T03:58:27;1.10;99.90
22491;DHT22;11412;50.802;4.350;2023-02-28T04:01:01;1.10;99.90
22491;DHT22;11412;50.802;4.350;2023-02-28T04:03:34;1.10;99.90
22491;DHT22;11412;50.802;4.350;2023-02-28T04:06:00;1.00;99.90
22491;DHT22;11412;50.802;4.350;2023-02-28T04:08:26;1.10;99.90
22491;DHT22;11412;50.802;4.350;2023-02-28T04:10:57;1.00;99.90
22491;DHT22;11412;50.802;4.350;2023-02-28T04:13:24;1.00;99.90
22491;DHT22;11412;50.802;4.350;2023-02-28T04:15:50;1.00;99.90
22491;DHT22;11412;50.802;4.350;2023-02-28T04:18:15;0.90;99.90
22491;DHT22;11412;50.802;4.350;2023-02-28T04:20:41;1.00;99.90
22491;DHT22;11412;50.802;4.350;2023-02-28T04:23:07;0.90;99.90
22491;DHT22;11412;50.802;4.350;2023-02-28T04:25:32;0.90;99.90
22491;DHT22;11412;50.802;4.350;2023-02-28T04:27:58;0.90;99.90
22491;DHT22;11412;50.802;4.350;2023-02-28T04:30:23;0.80;99.90
22491;DHT22;11412;50.802;4.350;2023-02-28T04:32:49;0.80;99.90
22491;DHT22;11412;50.802;4.350;2023-02-28T04:35:15;1.00;99.90
22491;DHT22;11412;50.802;4.350;2023-02-28T04:37:41;0.90;99.90
22491;DHT22;11412;50.802;4.350;2023-02-28T04:40:07;0.80;99.90
22491;DHT22;11412;50.802;4.350;2023-02-28T04:42:33;0.80;99.90
22491;DHT22;11412;50.802;4.350;2023-02-28T04:45:01;0.80;99.90
22491;DHT22;11412;50.802;4.350;2023-02-28T04:47:27;0.80;99.90
22491;DHT22;11412;50.802;4.350;2023-02-28T04:49:53;0.80;99.90
22491;DHT22;11412;50.802;4.350;2023-02-28T04:52:18;0.70;99.90
22491;DHT22;11412;50.802;4.350;2023-02-28T04:54:45;0.70;99.90
22491;DHT22;11412;50.802;4.350;2023-02-28T04:57:10;0.60;99.90
22491;DHT22;11412;50.802;4.350;2023-02-28T04:59:36;0.70;99.90
22491;DHT22;11412;50.802;4.350;2023-02-28T05:02:02;0.70;99.90
22491;DHT22;11412;50.802;4.350;2023-02-28T05:04:33;0.70;99.90
22491;DHT22;11412;50.802;4.350;2023-02-28T05:07:00;0.90;99.90
22491;DHT22;11412;50.802;4.350;2023-02-28T05:09:26;0.80;99.90
22491;DHT22;11412;50.802;4.350;2023-02-28T05:11:52;0.60;99.90
22491;DHT22;11412;50.802;4.350;2023-02-28T05:14:18;0.60;99.90
22491;DHT22;11412;50.802;4.350;2023-02-28T05:16:43;0.60;99.90
22491;DHT22;11412;50.802;4.350;2023-02-28T05:19:09;0.70;99.90
22491;DHT22;11412;50.802;4.350;2023-02-28T05:21:39;0.70;99.90
22491;DHT22;11412;50.802;4.350;2023-02-28T05:24:08;0.70;99.90
22491;DHT22;11412;50.802;4.350;2023-02-28T05:26:36;0.80;99.90
22491;DHT22;11412;50.802;4.350;2023-02-28T05:29:02;1.00;99.90
22491;DHT22;11412;50.802;4.350;2023-02-28T05:31:28;0.90;99.90
22491;DHT22;11412;50.802;4.350;2023-02-28T05:33:54;0.90;99.90
22491;DHT22;11412;50.802;4.350;2023-02-28T05:36:20;1.00;99.90
22491;DHT22;11412;50.802;4.350;2023-02-28T05:38:47;1.00;99.90
22491;DHT22;11412;50.802;4.350;2023-02-28T05:41:13;0.90;99.90
22491;DHT22;11412;50.802;4.350;2023-02-28T05:43:39;1.00;99.90
22491;DHT22;11412;50.802;4.350;2023-02-28T05:46:06;1.20;99.90
22491;DHT22;11412;50.802;4.350;2023-02-28T05:48:33;1.40;99.90
22491;DHT22;11412;50.802;4.350;2023-02-28T05:51:00;1.50;99.90
22491;DHT22;11412;50.802;4.350;2023-02-28T05:53:26;1.50;99.90
22491;DHT22;11412;50.802;4.350;2023-02-28T05:55:52;1.50;99.90
22491;DHT22;11412;50.802;4.350;2023-02-28T05:58:17;1.50;99.90
22491;DHT22;11412;50.802;4.350;2023-02-28T06:00:44;1.60;99.90
22491;DHT22;11412;50.802;4.350;2023-02-28T06:03:09;1.70;99.90
22491;DHT22;11412;50.802;4.350;2023-02-28T06:05:35;1.70;99.90
22491;DHT22;11412;50.802;4.350;2023-02-28T06:08:00;1.70;99.90
22491;DHT22;11412;50.802;4.350;2023-02-28T06:10:26;1.80;99.90
22491;DHT22;11412;50.802;4.350;2023-02-28T06:12:52;1.90;99.90
22491;DHT22;11412;50.802;4.350;2023-02-28T06:15:17;1.90;99.90
22491;DHT22;11412;50.802;4.350;2023-02-28T06:17:44;1.80;99.90
22491;DHT22;11412;50.802;4.350;2023-02-28T06:20:11;1.80;99.90
22491;DHT22;11412;50.802;4.350;2023-02-28T06:22:39;1.80;99.90
22491;DHT22;11412;50.802;4.350;2023-02-28T06:25:06;1.80;99.90
22491;DHT22;11412;50.802;4.350;2023-02-28T06:27:33;1.90;99.90
22491;DHT22;11412;50.802;4.350;2023-02-28T06:29:58;1.90;99.90
22491;DHT22;11412;50.802;4.350;2023-02-28T06:32:24;1.90;99.90
22491;DHT22;11412;50.802;4.350;2023-02-28T06:34:50;1.80;99.90
22491;DHT22;11412;50.802;4.350;2023-02-28T06:37:17;1.90;99.90
22491;DHT22;11412;50.802;4.350;2023-02-28T06:39:43;1.80;99.90
22491;DHT22;11412;50.802;4.350;2023-02-28T06:42:08;1.70;99.90
22491;DHT22;11412;50.802;4.350;2023-02-28T06:44:34;1.80;99.90
22491;DHT22;11412;50.802;4.350;2023-02-28T06:47:04;1.80;99.90
22491;DHT22;11412;50.802;4.350;2023-02-28T06:49:31;2.00;99.90
22491;DHT22;11412;50.802;4.350;2023-02-28T06:51:57;2.20;99.90
22491;DHT22;11412;50.802;4.350;2023-02-28T06:54:23;2.20;99.90
22491;DHT22;11412;50.802;4.350;2023-02-28T06:56:49;2.10;99.90
22491;DHT22;11412;50.802;4.350;2023-02-28T06:59:14;2.00;99.90
22491;DHT22;11412;50.802;4.350;2023-02-28T07:01:40;1.90;99.90
22491;DHT22;11412;50.802;4.350;2023-02-28T07:04:06;1.90;99.90
22491;DHT22;11412;50.802;4.350;2023-02-28T07:06:32;1.90;99.90
22491;DHT22;11412;50.802;4.350;2023-02-28T07:08:58;2.00;99.90
22491;DHT22;11412;50.802;4.350;2023-02-28T07:11:25;2.20;99.90
22491;DHT22;11412;50.802;4.350;2023-02-28T07:13:55;2.20;99.90
22491;DHT22;11412;50.802;4.350;2023-02-28T07:16:21;2.10;99.90
22491;DHT22;11412;50.802;4.350;2023-02-28T07:18:48;2.30;99.90
22491;DHT22;11412;50.802;4.350;2023-02-28T07:21:14;2.20;99.90
22491;DHT22;11412;50.802;4.350;2023-02-28T07:23:40;2.40;99.90
22491;DHT22;11412;50.802;4.350;2023-02-28T07:26:12;2.50;99.90
22491;DHT22;11412;50.802;4.350;2023-02-28T07:28:44;2.50;99.90
22491;DHT22;11412;50.802;4.350;2023-02-28T07:31:11;2.60;99.90
22491;DHT22;11412;50.802;4.350;2023-02-28T07:33:37;2.60;99.90
22491;DHT22;11412;50.802;4.350;2023-02-28T07:36:05;2.80;99.90
22491;DHT22;11412;50.802;4.350;2023-02-28T07:38:34;2.80;99.90
22491;DHT22;11412;50.802;4.350;2023-02-28T07:41:01;2.90;99.90
22491;DHT22;11412;50.802;4.350;2023-02-28T07:43:32;2.80;99.90
22491;DHT22;11412;50.802;4.350;2023-02-28T07:46:07;2.80;99.90
22491;DHT22;11412;50.802;4.350;2023-02-28T07:48:33;2.80;99.90
22491;DHT22;11412;50.802;4.350;2023-02-28T07:50:59;2.80;99.90
22491;DHT22;11412;50.802;4.350;2023-02-28T07:53:26;2.80;99.90
22491;DHT22;11412;50.802;4.350;2023-02-28T07:55:55;2.80;99.90
22491;DHT22;11412;50.802;4.350;2023-02-28T07:58:21;2.90;99.90
22491;DHT22;11412;50.802;4.350;2023-02-28T08:00:46;2.90;99.90
22491;DHT22;11412;50.802;4.350;2023-02-28T08:03:13;2.90;99.90
22491;DHT22;11412;50.802;4.350;2023-02-28T08:05:41;3.00;99.90
22491;DHT22;11412;50.802;4.350;2023-02-28T08:08:07;3.10;99.90
22491;DHT22;11412;50.802;4.350;2023-02-28T08:10:33;3.10;99.90
22491;DHT22;11412;50.802;4.350;2023-02-28T08:12:59;3.10;99.90
22491;DHT22;11412;50.802;4.350;2023-02-28T08:15:25;3.40;99.90
22491;DHT22;11412;50.802;4.350;2023-02-28T08:17:51;3.40;99.90
22491;DHT22;11412;50.802;4.350;2023-02-28T08:20:17;3.60;99.90
22491;DHT22;11412;50.802;4.350;2023-02-28T08:22:42;3.60;99.90
22491;DHT22;11412;50.802;4.350;2023-02-28T08:25:08;4.50;99.90
22491;DHT22;11412;50.802;4.350;2023-02-28T08:27:34;5.20;99.90
22491;DHT22;11412;50.802;4.350;2023-02-28T08:30:00;5.50;99.90
22491;DHT22;11412;50.802;4.350;2023-02-28T08:32:26;5.00;99.90
22491;DHT22;11412;50.802;4.350;2023-02-28T08:34:51;5.10;99.90
22491;DHT22;11412;50.802;4.350;2023-02-28T08:37:17;4.60;99.90
22491;DHT22;11412;50.802;4.350;2023-02-28T08:39:43;5.00;99.90
22491;DHT22;11412;50.802;4.350;2023-02-28T08:42:08;5.80;99.90
22491;DHT22;11412;50.802;4.350;2023-02-28T08:44:34;6.60;99.90
22491;DHT22;11412;50.802;4.350;2023-02-28T08:47:00;7.00;99.90
22491;DHT22;11412;50.802;4.350;2023-02-28T08:49:25;7.80;99.90
22491;DHT22;11412;50.802;4.350;2023-02-28T08:51:51;7.60;99.90
22491;DHT22;11412;50.802;4.350;2023-02-28T08:54:17;7.40;99.90
22491;DHT22;11412;50.802;4.350;2023-02-28T08:56:45;8.60;99.90
22491;DHT22;11412;50.802;4.350;2023-02-28T08:59:13;8.40;99.90
22491;DHT22;11412;50.802;4.350;2023-02-28T09:01:38;8.10;99.90
22491;DHT22;11412;50.802;4.350;2023-02-28T09:04:04;7.60;99.90
22491;DHT22;11412;50.802;4.350;2023-02-28T09:06:32;8.30;99.90
22491;DHT22;11412;50.802;4.350;2023-02-28T09:08:59;9.00;99.90
22491;DHT22;11412;50.802;4.350;2023-02-28T09:11:26;8.50;99.90
22491;DHT22;11412;50.802;4.350;2023-02-28T09:13:52;8.70;99.90
22491;DHT22;11412;50.802;4.350;2023-02-28T09:16:19;9.70;99.90
22491;DHT22;11412;50.802;4.350;2023-02-28T09:18:45;8.40;99.90
22491;DHT22;11412;50.802;4.350;2023-02-28T09:21:13;8.30;99.90
22491;DHT22;11412;50.802;4.350;2023-02-28T09:23:40;7.50;99.90
22491;DHT22;11412;50.802;4.350;2023-02-28T09:26:07;7.20;99.90
22491;DHT22;11412;50.802;4.350;2023-02-28T09:28:32;7.60;99.90
22491;DHT22;11412;50.802;4.350;2023-02-28T09:30:58;8.10;99.90
22491;DHT22;11412;50.802;4.350;2023-02-28T09:33:25;8.40;99.90
22491;DHT22;11412;50.802;4.350;2023-02-28T09:35:57;8.70;99.90
22491;DHT22;11412;50.802;4.350;2023-02-28T09:38:23;8.80;99.90
22491;DHT22;11412;50.802;4.350;2023-02-28T09:40:49;9.10;99.90
22491;DHT22;11412;50.802;4.350;2023-02-28T09:43:17;10.30;99.90
22491;DHT22;11412;50.802;4.350;2023-02-28T09:46:03;10.60;99.90
22491;DHT22;11412;50.802;4.350;2023-02-28T09:48:39;9.20;99.90
22491;DHT22;11412;50.802;4.350;2023-02-28T09:53:55;8.80;99.90
22491;DHT22;11412;50.802;4.350;2023-02-28T09:56:30;10.10;99.90
22491;DHT22;11412;50.802;4.350;2023-02-28T10:01:52;10.30;99.90
22491;DHT22;11412;50.802;4.350;2023-02-28T10:04:30;9.40;99.90
22491;DHT22;11412;50.802;4.350;2023-02-28T10:06:59;8.40;99.90
22491;DHT22;11412;50.802;4.350;2023-02-28T10:09:32;8.10;99.90
22491;DHT22;11412;50.802;4.350;2023-02-28T10:12:05;8.30;99.90
22491;DHT22;11412;50.802;4.350;2023-02-28T10:14:33;8.50;99.90
22491;DHT22;11412;50.802;4.350;2023-02-28T10:17:13;9.10;99.90
22491;DHT22;11412;50.802;4.350;2023-02-28T10:22:22;9.30;99.90
22491;DHT22;11412;50.802;4.350;2023-02-28T10:24:52;9.40;99.90
22491;DHT22;11412;50.802;4.350;2023-02-28T10:27:23;8.90;99.90
22491;DHT22;11412;50.802;4.350;2023-02-28T10:29:54;8.90;99.90
22491;DHT22;11412;50.802;4.350;2023-02-28T10:32:24;8.80;99.90
22491;DHT22;11412;50.802;4.350;2023-02-28T10:37:38;9.30;99.90
22491;DHT22;11412;50.802;4.350;2023-02-28T10:40:25;9.40;99.70
22491;DHT22;11412;50.802;4.350;2023-02-28T10:43:02;8.50;99.60
22491;DHT22;11412;50.802;4.350;2023-02-28T10:45:30;8.40;99.90
22491;DHT22;11412;50.802;4.350;2023-02-28T10:51:04;9.30;97.90
22491;DHT22;11412;50.802;4.350;2023-02-28T10:56:05;9.80;98.10
22491;DHT22;11412;50.802;4.350;2023-02-28T11:03:46;9.90;97.40
22491;DHT22;11412;50.802;4.350;2023-02-28T11:06:22;9.50;97.10
22491;DHT22;11412;50.802;4.350;2023-02-28T11:08:54;9.80;99.00
22491;DHT22;11412;50.802;4.350;2023-02-28T11:11:23;9.40;97.60
22491;DHT22;11412;50.802;4.350;2023-02-28T11:13:56;9.80;97.70
22491;DHT22;11412;50.802;4.350;2023-02-28T11:16:35;9.90;96.80
22491;DHT22;11412;50.802;4.350;2023-02-28T11:19:03;9.70;97.80
22491;DHT22;11412;50.802;4.350;2023-02-28T11:21:32;10.00;97.30
22491;DHT22;11412;50.802;4.350;2023-02-28T11:24:22;10.10;97.30
22491;DHT22;11412;50.802;4.350;2023-02-28T11:26:49;10.40;96.20
22491;DHT22;11412;50.802;4.350;2023-02-28T11:29:26;10.20;97.80
22491;DHT22;11412;50.802;4.350;2023-02-28T11:32:16;9.90;97.20
22491;DHT22;11412;50.802;4.350;2023-02-28T11:34:43;9.90;96.00
22491;DHT22;11412;50.802;4.350;2023-02-28T11:37:15;9.00;97.00
22491;DHT22;11412;50.802;4.350;2023-02-28T11:39:42;8.20;97.30
22491;DHT22;11412;50.802;4.350;2023-02-28T11:42:18;8.40;97.50
22491;DHT22;11412;50.802;4.350;2023-02-28T11:48:23;9.20;96.80
22491;DHT22;11412;50.802;4.350;2023-02-28T11:53:21;8.80;97.10
22491;DHT22;11412;50.802;4.350;2023-02-28T11:55:58;9.20;97.60
22491;DHT22;11412;50.802;4.350;2023-02-28T12:01:21;9.10;97.00
22491;DHT22;11412;50.802;4.350;2023-02-28T12:04:36;8.70;98.40
22491;DHT22;11412;50.802;4.350;2023-02-28T12:07:18;9.00;98.90
22491;DHT22;11412;50.802;4.350;2023-02-28T12:16:10;10.40;95.30
22491;DHT22;11412;50.802;4.350;2023-02-28T12:21:44;10.40;94.80
22491;DHT22;11412;50.802;4.350;2023-02-28T12:26:53;9.60;95.70
22491;DHT22;11412;50.802;4.350;2023-02-28T12:29:29;10.40;95.30
22491;DHT22;11412;50.802;4.350;2023-02-28T12:32:06;10.40;94.40
22491;DHT22;11412;50.802;4.350;2023-02-28T12:37:45;10.20;94.70
22491;DHT22;11412;50.802;4.350;2023-02-28T12:40:18;10.20;94.30
22491;DHT22;11412;50.802;4.350;2023-02-28T12:42:55;10.60;94.60
22491;DHT22;11412;50.802;4.350;2023-02-28T12:45:26;10.60;93.50
22491;DHT22;11412;50.802;4.350;2023-02-28T12:47:59;10.40;93.90
22491;DHT22;11412;50.802;4.350;2023-02-28T12:50:26;10.30;93.70
22491;DHT22;11412;50.802;4.350;2023-02-28T12:52:58;10.30;94.50
22491;DHT22;11412;50.802;4.350;2023-02-28T12:58:34;10.30;93.70
22491;DHT22;11412;50.802;4.350;2023-02-28T13:01:16;10.40;93.70
22491;DHT22;11412;50.802;4.350;2023-02-28T13:04:57;10.00;93.60
22491;DHT22;11412;50.802;4.350;2023-02-28T13:07:25;10.00;93.80
22491;DHT22;11412;50.802;4.350;2023-02-28T13:09:57;9.90;94.00
22491;DHT22;11412;50.802;4.350;2023-02-28T13:12:24;10.30;94.00
22491;DHT22;11412;50.802;4.350;2023-02-28T13:15:07;10.20;93.70
22491;DHT22;11412;50.802;4.350;2023-02-28T13:17:39;9.40;93.20
22491;DHT22;11412;50.802;4.350;2023-02-28T13:20:20;9.00;94.10
22491;DHT22;11412;50.802;4.350;2023-02-28T13:22:49;9.80;94.10
22491;DHT22;11412;50.802;4.350;2023-02-28T13:27:48;9.70;93.80
22491;DHT22;11412;50.802;4.350;2023-02-28T13:33:35;9.50;93.40
22491;DHT22;11412;50.802;4.350;2023-02-28T13:38:46;9.70;93.10
22491;DHT22;11412;50.802;4.350;2023-02-28T13:44:02;9.50;94.40
22491;DHT22;11412;50.802;4.350;2023-02-28T13:46:29;9.70;93.10
22491;DHT22;11412;50.802;4.350;2023-02-28T13:48:55;9.30;93.90
22491;DHT22;11412;50.802;4.350;2023-02-28T13:51:42;9.10;93.30
22491;DHT22;11412;50.802;4.350;2023-02-28T13:54:28;9.60;93.80
22491;DHT22;11412;50.802;4.350;2023-02-28T14:00:32;10.00;92.90
22491;DHT22;11412;50.802;4.350;2023-02-28T14:04:06;9.80;93.00
22491;DHT22;11412;50.802;4.350;2023-02-28T14:06:25;9.90;94.00
22491;DHT22;11412;50.802;4.350;2023-02-28T14:09:01;9.60;93.10
22491;DHT22;11412;50.802;4.350;2023-02-28T14:11:35;9.90;93.00
22491;DHT22;11412;50.802;4.350;2023-02-28T14:14:02;10.40;92.50
22491;DHT22;11412;50.802;4.350;2023-02-28T14:19:03;11.00;92.00
22491;DHT22;11412;50.802;4.350;2023-02-28T14:21:35;12.20;91.60
22491;DHT22;11412;50.802;4.350;2023-02-28T14:24:33;12.20;90.40
22491;DHT22;11412;50.802;4.350;2023-02-28T14:27:35;12.40;90.00
22491;DHT22;11412;50.802;4.350;2023-02-28T14:30:40;11.70;90.10
22491;DHT22;11412;50.802;4.350;2023-02-28T14:36:09;10.80;91.30
22491;DHT22;11412;50.802;4.350;2023-02-28T14:39:16;11.30;91.60
22491;DHT22;11412;50.802;4.350;2023-02-28T14:41:39;11.40;92.00
22491;DHT22;11412;50.802;4.350;2023-02-28T14:46:44;11.20;90.90
22491;DHT22;11412;50.802;4.350;2023-02-28T14:49:34;10.60;91.90
22491;DHT22;11412;50.802;4.350;2023-02-28T14:54:36;10.70;91.10
22491;DHT22;11412;50.802;4.350;2023-02-28T14:57:02;10.50;91.80
22491;DHT22;11412;50.802;4.350;2023-02-28T14:59:30;10.10;91.90
22491;DHT22;11412;50.802;4.350;2023-02-28T15:02:25;9.90;92.00
22491;DHT22;11412;50.802;4.350;2023-02-28T15:04:56;10.30;92.40
22491;DHT22;11412;50.802;4.350;2023-02-28T15:07:22;10.50;91.70
22491;DHT22;11412;50.802;4.350;2023-02-28T15:12:42;9.30;92.20
22491;DHT22;11412;50.802;4.350;2023-02-28T15:15:19;10.20;92.40
22491;DHT22;11412;50.802;4.350;2023-02-28T15:17:50;10.40;93.00
22491;DHT22;11412;50.802;4.350;2023-02-28T15:20:17;10.40;92.70
22491;DHT22;11412;50.802;4.350;2023-02-28T15:22:46;10.30;92.20
22491;DHT22;11412;50.802;4.350;2023-02-28T15:25:17;10.00;92.00
22491;DHT22;11412;50.802;4.350;2023-02-28T15:27:47;9.80;92.70
22491;DHT22;11412;50.802;4.350;2023-02-28T15:30:29;9.40;93.60
22491;DHT22;11412;50.802;4.350;2023-02-28T15:35:44;8.90;93.70
22491;DHT22;11412;50.802;4.350;2023-02-28T15:38:27;8.90;93.90
22491;DHT22;11412;50.802;4.350;2023-02-28T15:40:55;8.50;94.20
22491;DHT22;11412;50.802;4.350;2023-02-28T15:43:29;8.70;94.60
22491;DHT22;11412;50.802;4.350;2023-02-28T15:45:58;8.50;94.90
22491;DHT22;11412;50.802;4.350;2023-02-28T15:50:54;8.00;95.00
22491;DHT22;11412;50.802;4.350;2023-02-28T15:53:28;8.30;95.00
22491;DHT22;11412;50.802;4.350;2023-02-28T15:56:02;8.10;95.40
22491;DHT22;11412;50.802;4.350;2023-02-28T15:58:28;8.00;95.40
22491;DHT22;11412;50.802;4.350;2023-02-28T16:01:08;7.90;96.30
22491;DHT22;11412;50.802;4.350;2023-02-28T16:03:50;7.80;96.10
22491;DHT22;11412;50.802;4.350;2023-02-28T16:08:42;7.30;96.10
22491;DHT22;11412;50.802;4.350;2023-02-28T16:11:11;7.30;96.90
22491;DHT22;11412;50.802;4.350;2023-02-28T16:13:37;7.00;96.60
22491;DHT22;11412;50.802;4.350;2023-02-28T16:16:03;6.90;96.80
22491;DHT22;11412;50.802;4.350;2023-02-28T16:18:29;7.00;96.90
22491;DHT22;11412;50.802;4.350;2023-02-28T16:20:54;6.90;96.80
22491;DHT22;11412;50.802;4.350;2023-02-28T16:23:20;7.20;96.50
22491;DHT22;11412;50.802;4.350;2023-02-28T16:25:46;7.10;96.90
22491;DHT22;11412;50.802;4.350;2023-02-28T16:28:24;6.80;97.30
22491;DHT22;11412;50.802;4.350;2023-02-28T16:30:53;6.90;98.30
22491;DHT22;11412;50.802;4.350;2023-02-28T16:33:19;6.70;97.50
22491;DHT22;11412;50.802;4.350;2023-02-28T16:35:45;6.60;97.50
22491;DHT22;11412;50.802;4.350;2023-02-28T16:38:10;6.50;98.30
22491;DHT22;11412;50.802;4.350;2023-02-28T16:40:36;6.50;98.50
22491;DHT22;11412;50.802;4.350;2023-02-28T16:43:07;6.50;98.70
22491;DHT22;11412;50.802;4.350;2023-02-28T16:45:35;6.20;98.90
22491;DHT22;11412;50.802;4.350;2023-02-28T16:48:00;6.20;99.30
22491;DHT22;11412;50.802;4.350;2023-02-28T16:50:30;6.10;99.70
22491;DHT22;11412;50.802;4.350;2023-02-28T16:52:58;6.10;99.90
22491;DHT22;11412;50.802;4.350;2023-02-28T16:55:25;6.10;99.90
22491;DHT22;11412;50.802;4.350;2023-02-28T16:57:59;6.20;99.80
22491;DHT22;11412;50.802;4.350;2023-02-28T17:00:26;6.20;99.60
22491;DHT22;11412;50.802;4.350;2023-02-28T17:02:54;6.30;99.80
22491;DHT22;11412;50.802;4.350;2023-02-28T17:05:20;5.90;99.80
22491;DHT22;11412;50.802;4.350;2023-02-28T17:07:46;5.90;99.90
22491;DHT22;11412;50.802;4.350;2023-02-28T17:12:40;5.60;99.90
22491;DHT22;11412;50.802;4.350;2023-02-28T17:15:06;5.50;99.90
22491;DHT22;11412;50.802;4.350;2023-02-28T17:17:32;5.40;99.90
22491;DHT22;11412;50.802;4.350;2023-02-28T17:19:58;5.40;99.90
22491;DHT22;11412;50.802;4.350;2023-02-28T17:22:23;5.30;99.90
22491;DHT22;11412;50.802;4.350;2023-02-28T17:24:51;5.30;99.90
22491;DHT22;11412;50.802;4.350;2023-02-28T17:27:21;5.30;99.90
22491;DHT22;11412;50.802;4.350;2023-02-28T17:29:47;5.20;99.90
22491;DHT22;11412;50.802;4.350;2023-02-28T17:32:12;5.20;99.90
22491;DHT22;11412;50.802;4.350;2023-02-28T17:34:38;5.20;99.90
22491;DHT22;11412;50.802;4.350;2023-02-28T17:37:04;5.30;99.90
22491;DHT22;11412;50.802;4.350;2023-02-28T17:39:29;5.30;99.90
22491;DHT22;11412;50.802;4.350;2023-02-28T17:41:56;5.20;99.90
22491;DHT22;11412;50.802;4.350;2023-02-28T17:44:23;5.10;99.90
22491;DHT22;11412;50.802;4.350;2023-02-28T17:46:49;5.10;99.90
22491;DHT22;11412;50.802;4.350;2023-02-28T17:49:16;4.90;99.90
22491;DHT22;11412;50.802;4.350;2023-02-28T17:51:42;4.80;99.90
22491;DHT22;11412;50.802;4.350;2023-02-28T17:54:08;4.90;99.90
22491;DHT22;11412;50.802;4.350;2023-02-28T17:56:34;4.90;99.90
22491;DHT22;11412;50.802;4.350;2023-02-28T17:59:00;4.90;99.90
22491;DHT22;11412;50.802;4.350;2023-02-28T18:01:26;4.80;99.90
22491;DHT22;11412;50.802;4.350;2023-02-28T18:03:52;4.80;99.90
22491;DHT22;11412;50.802;4.350;2023-02-28T18:06:43;4.70;99.90